CheckWX is a tool to help pilots better visualize weather data.  It is not intended as a substitute for an official pre-flight weather briefing.

02:15:12 UTC

KPYX METAR
Perryton Ochiltree County Airport
Perryton, Texas, USA
Current

20 mins ago

KPYX 180155Z AUTO 22008KT 10SM CLR 04/M03 A3006 RMK AO2 T00421034
Observed
Nov-18 @ 01:55 UTC
Wind
  • 220° at 8 KTS
Visibility
10 SM
Flight Rules
VFR
Cloud Levels
  • Clear skies
Temperature
C / 39°F
Dewpoint
-3°C / 27°F
Humidity
61%
Altimeter
30.06" Hg
Pressure
1017.92 hPa
Previous

40 mins ago

KPYX 180135Z AUTO 23007KT 10SM CLR 04/M04 A3006 RMK AO2 T00441036
Observed
Nov-18 @ 01:35 UTC
Wind
  • 230° at 7 KTS
Visibility
10 SM
Flight Rules
VFR
Cloud Levels
  • Clear skies
Temperature
C / 39°F
Dewpoint
-4°C / 25°F
Humidity
56%
Altimeter
30.06" Hg
Pressure
1017.92 hPa
Previous

60 mins ago

KPYX 180115Z AUTO 23006KT 10SM CLR 05/M04 A3006 RMK AO2 T00501036
Observed
Nov-18 @ 01:15 UTC
Wind
  • 230° at 6 KTS
Visibility
10 SM
Flight Rules
VFR
Cloud Levels
  • Clear skies
Temperature
C / 41°F
Dewpoint
-4°C / 25°F
Humidity
53%
Altimeter
30.06" Hg
Pressure
1017.92 hPa